Time;durP1;ratioP1;P1;durP2;ratioP2;P2;SDS_P1;SDS_P2;PMS_P1;PMS_P2;Temp;Humidity;BMP_temperature;BMP_pressure;BME280_temperature;BME280_humidity;BME280_pressure;Samples;Min_cycle;Max_cycle;Signal;HPM_P1;HPM_P2
2022/01/10 00:00:11;;;;;;;0.00;0.00;;;;;;;6.93;100.00;97578.44;4971145;28;20031;-71
2022/01/10 00:02:37;;;;;;;0.00;0.00;;;;;;;6.68;100.00;97553.81;4972741;28;20130;-72
2022/01/10 00:05:03;;;;;;;0.00;0.00;;;;;;;6.92;100.00;97588.28;4972278;28;20141;-72
2022/01/10 00:07:29;;;;;;;0.08;0.05;;;;;;;6.88;100.00;97593.41;4972417;28;20053;-72
2022/01/10 00:09:54;;;;;;;0.00;0.00;;;;;;;6.90;100.00;97595.75;4972309;28;20039;-72
2022/01/10 00:12:20;;;;;;;0.00;0.00;;;;;;;6.86;100.00;97598.19;4972499;28;20034;-72
2022/01/10 00:14:45;;;;;;;0.00;0.00;;;;;;;6.86;100.00;97595.53;4970704;28;20023;-71
2022/01/10 00:17:11;;;;;;;0.00;0.00;;;;;;;6.84;100.00;97583.63;4966947;28;20035;-71
2022/01/10 00:19:36;;;;;;;0.00;0.00;;;;;;;6.82;100.00;97591.88;4971874;28;20421;-72
2022/01/10 00:22:02;;;;;;;0.00;0.00;;;;;;;6.84;100.00;97580.97;4972171;28;20456;-71
2022/01/10 00:24:27;;;;;;;0.00;0.00;;;;;;;6.82;100.00;97577.78;4971978;28;20034;-72
2022/01/10 00:26:53;;;;;;;0.00;0.00;;;;;;;6.78;100.00;97571.47;4971870;28;20035;-71
2022/01/10 00:29:18;;;;;;;0.00;0.00;;;;;;;6.81;100.00;97582.34;4972258;28;20030;-71
2022/01/10 00:31:44;;;;;;;0.10;0.10;;;;;;;6.81;100.00;97587.66;4972025;28;20410;-73
2022/01/10 00:34:10;;;;;;;0.00;0.00;;;;;;;6.73;100.00;97575.00;4972422;28;20397;-73
2022/01/10 00:36:36;;;;;;;0.00;0.00;;;;;;;6.79;100.00;97587.13;4971812;28;20041;-72
2022/01/10 00:39:03;;;;;;;0.35;0.35;;;;;;;6.69;100.00;97566.03;4971739;28;20030;-72
2022/01/10 00:41:28;;;;;;;4.18;1.02;;;;;;;6.73;100.00;97575.78;4972336;28;20046;-72
2022/01/10 00:43:54;;;;;;;0.00;0.00;;;;;;;6.70;100.00;97567.59;4971756;28;20433;-73
2022/01/10 00:46:19;;;;;;;0.30;0.30;;;;;;;6.69;100.00;97558.06;4971967;28;20110;-71
2022/01/10 00:48:44;;;;;;;0.00;0.00;;;;;;;6.71;100.00;97556.69;4971380;28;20034;-72
2022/01/10 00:51:10;;;;;;;0.00;0.00;;;;;;;6.66;100.00;97561.28;4971787;28;20058;-72
2022/01/10 00:53:36;;;;;;;0.00;0.00;;;;;;;6.69;100.00;97566.03;4971399;28;20490;-71
2022/01/10 00:56:03;;;;;;;0.30;0.30;;;;;;;6.65;100.00;97560.50;4970063;28;20137;-72
2022/01/10 00:58:28;;;;;;;0.00;0.00;;;;;;;6.73;100.00;97580.31;4971539;28;20402;-72
2022/01/10 01:00:54;;;;;;;0.00;0.00;;;;;;;6.68;100.00;97567.09;4971357;28;20183;-72
2022/01/10 01:03:19;;;;;;;0.00;0.00;;;;;;;6.67;100.00;97563.63;4971539;28;20027;-74
2022/01/10 01:05:45;;;;;;;0.00;0.00;;;;;;;6.60;100.00;97552.56;4971491;28;20042;-73
2022/01/10 01:08:13;;;;;;;0.00;0.00;;;;;;;6.68;100.00;97553.81;4971415;28;20042;-74
2022/01/10 01:13:33;;;;;;;0.00;0.00;;;;;;;6.73;100.00;97559.06;4971004;28;20653;-73
2022/01/10 01:26:26;;;;;;;0.00;0.00;;;;;;;6.82;100.00;97546.72;4971123;28;20038;-73
2022/01/10 01:28:51;;;;;;;0.00;0.00;;;;;;;6.84;100.00;97549.06;4969409;28;20027;-72
2022/01/10 01:31:17;;;;;;;0.00;0.00;;;;;;;6.88;100.00;97558.84;4971040;28;20033;-74
2022/01/10 01:33:42;;;;;;;0.00;0.00;;;;;;;6.85;100.00;97548.00;4971297;28;20031;-74
2022/01/10 01:36:08;;;;;;;0.75;0.50;;;;;;;6.86;100.00;97549.56;4971033;28;20486;-73
2022/01/10 01:38:34;;;;;;;0.00;0.00;;;;;;;6.87;100.00;97554.59;4970980;28;20031;-73
2022/01/10 01:41:17;;;;;;;0.00;0.00;;;;;;;6.81;100.00;97536.34;4969684;28;20027;-73
2022/01/10 01:43:43;;;;;;;0.20;0.20;;;;;;;6.86;100.00;97539.75;4971136;28;20027;-73
2022/01/10 01:46:09;;;;;;;0.00;0.00;;;;;;;6.83;100.00;97532.31;4970979;28;20384;-74
2022/01/10 01:48:35;;;;;;;0.20;0.20;;;;;;;6.92;100.00;97542.31;4970812;28;20035;-75
2022/01/10 01:51:01;;;;;;;0.90;0.68;;;;;;;6.94;100.00;97535.63;4969781;28;20038;-74
2022/01/10 01:53:26;;;;;;;0.10;0.10;;;;;;;6.93;100.00;97534.03;4970224;28;20049;-74
2022/01/10 01:55:52;;;;;;;0.00;0.00;;;;;;;6.84;100.00;97528.59;4970346;28;20110;-73
2022/01/10 01:58:17;;;;;;;0.00;0.00;;;;;;;6.72;100.00;97521.06;4970287;28;20487;-73
2022/01/10 02:00:43;;;;;;;0.52;0.52;;;;;;;6.78;100.00;97526.31;4970458;28;20027;-73
2022/01/10 02:03:08;;;;;;;0.00;0.00;;;;;;;6.73;100.00;97521.84;4970320;28;20031;-74
2022/01/10 02:05:34;;;;;;;0.00;0.00;;;;;;;6.64;100.00;97512.94;4968953;28;20325;-73
2022/01/10 02:07:59;;;;;;;0.15;0.15;;;;;;;6.68;100.00;97521.94;4970222;28;20106;-75
2022/01/10 02:10:25;;;;;;;0.05;0.05;;;;;;;6.68;100.00;97525.38;4969225;28;20072;-73
2022/01/10 02:12:50;;;;;;;0.00;0.00;;;;;;;6.64;100.00;97520.91;4969270;28;20088;-71
2022/01/10 02:15:33;;;;;;;0.00;0.00;;;;;;;6.64;100.00;97518.25;4970397;28;20039;-71
2022/01/10 02:18:00;;;;;;;0.00;0.00;;;;;;;6.56;100.00;97509.84;4968761;28;20114;-73
2022/01/10 02:20:29;;;;;;;0.22;0.22;;;;;;;6.53;100.00;97515.75;4970374;28;20035;-73
2022/01/10 02:22:55;;;;;;;0.00;0.00;;;;;;;6.51;100.00;97512.59;4970347;28;20022;-72
2022/01/10 02:25:20;;;;;;;0.10;0.10;;;;;;;6.52;100.00;97516.84;4969633;28;20405;-72
2022/01/10 02:27:47;;;;;;;0.00;0.00;;;;;;;6.52;100.00;97518.72;4970472;28;20022;-72
2022/01/10 02:30:12;;;;;;;0.00;0.00;;;;;;;6.54;100.00;97511.22;4968942;28;20624;-72
2022/01/10 02:32:38;;;;;;;0.00;0.00;;;;;;;6.53;100.00;97504.34;4969150;28;20113;-72
2022/01/10 02:35:04;;;;;;;0.00;0.00;;;;;;;6.49;100.00;97501.47;4969860;28;20110;-72
2022/01/10 02:37:34;;;;;;;0.00;0.00;;;;;;;6.64;100.00;97519.06;4970012;28;20039;-72
2022/01/10 02:40:03;;;;;;;0.00;0.00;;;;;;;6.68;100.00;97520.06;4970058;28;20050;-71
2022/01/10 02:42:28;;;;;;;;;;;;;;;6.71;100.00;97510.72;4970745;28;20027;-71
2022/01/10 02:44:54;;;;;;;0.00;0.00;;;;;;;6.70;100.00;97504.63;4969256;28;19925;-72
2022/01/10 02:47:19;;;;;;;0.00;0.00;;;;;;;6.72;100.00;97501.69;4969892;28;20508;-72
2022/01/10 02:49:45;;;;;;;0.00;0.00;;;;;;;6.71;100.00;97498.25;4969907;28;20034;-72
2022/01/10 02:52:10;;;;;;;0.00;0.00;;;;;;;6.71;100.00;97490.28;4970185;28;20545;-72
2022/01/10 02:54:35;;;;;;;0.00;0.00;;;;;;;6.79;100.00;97504.75;4969245;28;20037;-72
2022/01/10 02:57:01;;;;;;;0.00;0.00;;;;;;;6.83;100.00;97497.00;4969174;28;20035;-72
2022/01/10 02:59:26;;;;;;;0.00;0.00;;;;;;;6.79;100.00;97488.81;4968782;28;20031;-72
2022/01/10 03:01:52;;;;;;;0.00;0.00;;;;;;;6.89;100.00;97509.13;4969625;28;20168;-73
2022/01/10 03:04:18;;;;;;;0.00;0.00;;;;;;;6.91;100.00;97504.31;4968412;28;20030;-74
2022/01/10 03:06:44;;;;;;;0.00;0.00;;;;;;;6.91;100.00;97507.00;4968648;28;20027;-75
2022/01/10 03:09:11;;;;;;;0.00;0.00;;;;;;;6.86;100.00;97497.22;4969480;28;20095;-75
2022/01/10 03:11:41;;;;;;;0.00;0.00;;;;;;;6.98;100.00;97511.91;4969613;28;20039;-75
2022/01/10 03:14:07;;;;;;;0.00;0.00;;;;;;;6.94;100.00;97498.41;4969650;28;20486;-74
2022/01/10 03:16:34;;;;;;;0.00;0.00;;;;;;;7.02;100.00;97518.25;4969666;28;20041;-75
2022/01/10 03:18:59;;;;;;;0.00;0.00;;;;;;;7.04;100.00;97514.22;4968460;28;20035;-74
2022/01/10 03:21:25;;;;;;;0.00;0.00;;;;;;;7.03;100.00;97514.50;4969978;28;20053;-75
2022/01/10 03:23:51;;;;;;;0.00;0.00;;;;;;;7.00;100.00;97505.22;4969391;28;20031;-72
2022/01/10 03:26:18;;;;;;;0.00;0.00;;;;;;;7.12;100.00;97525.28;4969120;28;20106;-73
2022/01/10 03:28:44;;;;;;;0.00;0.00;;;;;;;7.05;100.00;97517.66;4969647;28;20070;-73
2022/01/10 03:31:09;;;;;;;0.00;0.00;;;;;;;7.11;100.00;97527.13;4968802;28;20039;-72
2022/01/10 03:33:35;;;;;;;0.00;0.00;;;;;;;7.05;100.00;97517.66;4969561;28;20398;-72
2022/01/10 03:36:00;;;;;;;0.00;0.00;;;;;;;7.13;100.00;97526.81;4969090;28;20164;-73
2022/01/10 03:38:26;;;;;;;0.00;0.00;;;;;;;7.15;100.00;97530.00;4969356;28;20118;-74
2022/01/10 03:40:52;;;;;;;0.00;0.00;;;;;;;7.14;100.00;97523.91;4969217;28;20019;-74
2022/01/10 03:43:17;;;;;;;0.00;0.00;;;;;;;7.16;100.00;97528.91;4969197;28;20038;-73
2022/01/10 03:45:43;;;;;;;0.15;0.15;;;;;;;7.08;100.00;97516.28;4969440;28;20101;-74
2022/01/10 03:48:09;;;;;;;0.00;0.00;;;;;;;7.14;100.00;97521.25;4969451;28;20482;-73
2022/01/10 03:50:35;;;;;;;0.00;0.00;;;;;;;7.09;100.00;97515.22;4969166;28;20094;-73
2022/01/10 03:53:01;;;;;;;0.00;0.00;;;;;;;7.11;100.00;97521.03;4968853;28;20035;-72
2022/01/10 03:55:26;;;;;;;0.10;0.10;;;;;;;7.11;100.00;97516.50;4969307;28;20038;-72
2022/01/10 03:57:52;;;;;;;0.13;0.13;;;;;;;7.11;100.00;97518.38;4968932;28;20041;-71
2022/01/10 04:00:17;;;;;;;0.00;0.00;;;;;;;7.13;100.00;97524.16;4969011;28;20031;-71
2022/01/10 04:02:50;;;;;;;0.00;0.00;;;;;;;7.17;100.00;97533.94;4969332;28;20100;-72
2022/01/10 04:05:16;;;;;;;0.00;0.00;;;;;;;7.10;100.00;97522.88;4968277;28;20417;-73
2022/01/10 04:07:42;;;;;;;0.00;0.00;;;;;;;7.16;100.00;97532.34;4968912;28;20023;-72
2022/01/10 04:10:07;;;;;;;0.00;0.00;;;;;;;6.95;100.00;97488.59;4968862;28;20106;-72
2022/01/10 04:12:33;;;;;;;0.00;0.00;;;;;;;7.20;100.00;97532.56;4968868;28;20055;-71
2022/01/10 04:14:58;;;;;;;0.70;0.70;;;;;;;7.08;100.00;97526.91;4968786;28;20027;-71
2022/01/10 04:17:24;;;;;;;0.00;0.00;;;;;;;7.13;100.00;97551.56;4968346;28;20549;-71
2022/01/10 04:19:49;;;;;;;0.10;0.10;;;;;;;7.01;100.00;97535.28;4968978;28;20030;-70
2022/01/10 04:22:14;;;;;;;0.00;0.00;;;;;;;6.83;100.00;97510.28;4968785;28;20030;-71
2022/01/10 04:24:40;;;;;;;0.35;0.35;;;;;;;7.04;100.00;97548.78;4968084;28;20078;-70
2022/01/10 04:27:05;;;;;;;0.10;0.10;;;;;;;7.01;100.00;97546.69;4968432;28;20509;-70
2022/01/10 04:29:31;;;;;;;0.00;0.00;;;;;;;6.89;100.00;97528.50;4970611;28;20488;-72
2022/01/10 04:31:56;;;;;;;0.00;0.00;;;;;;;6.95;100.00;97539.88;4970541;28;20026;-74
2022/01/10 04:34:22;;;;;;;3.05;0.80;;;;;;;6.94;100.00;97548.91;4971936;28;20100;-71
2022/01/10 04:36:47;;;;;;;0.00;0.00;;;;;;;6.95;100.00;97553.16;4970659;28;20034;-71
2022/01/10 04:39:13;;;;;;;0.00;0.00;;;;;;;6.99;100.00;97561.34;4972169;28;20383;-70
2022/01/10 04:41:39;;;;;;;0.50;0.45;;;;;;;6.99;100.00;97566.66;4971975;28;20521;-71
2022/01/10 04:44:06;;;;;;;0.10;0.10;;;;;;;6.95;100.00;97558.47;4971394;28;20039;-72
2022/01/10 04:46:32;;;;;;;0.00;0.00;;;;;;;6.91;100.00;97554.00;4971471;28;20068;-72
2022/01/10 04:48:58;;;;;;;0.00;0.00;;;;;;;6.89;100.00;97549.78;4971330;28;20106;-73
2022/01/10 04:51:24;;;;;;;1.10;1.10;;;;;;;6.92;100.00;97563.56;4971869;28;20474;-71
2022/01/10 04:53:51;;;;;;;2.25;1.48;;;;;;;6.94;100.00;97569.41;4970983;28;20587;-71
2022/01/10 04:56:17;;;;;;;3.03;0.93;;;;;;;6.93;100.00;97578.44;4970693;28;20083;-73
2022/01/10 04:58:45;;;;;;;0.57;0.57;;;;;;;6.81;100.00;97557.59;4971636;28;20035;-72
2022/01/10 05:01:12;;;;;;;0.40;0.40;;;;;;;6.85;100.00;97562.06;4971515;28;20414;-70
2022/01/10 05:03:37;;;;;;;0.35;0.35;;;;;;;6.90;100.00;97566.53;4969417;28;20034;-73
2022/01/10 05:06:04;;;;;;;1.33;1.33;;;;;;;6.89;100.00;97564.94;4971495;28;20451;-70
2022/01/10 05:08:29;;;;;;;0.77;0.77;;;;;;;6.85;100.00;97555.97;4971327;28;20031;-69
2022/01/10 05:10:56;;;;;;;1.85;1.83;;;;;;;6.85;100.00;97563.94;4969781;28;20103;-71
2022/01/10 05:13:22;;;;;;;0.15;0.15;;;;;;;6.86;100.00;97554.88;4971602;28;20027;-69
2022/01/10 05:15:50;;;;;;;0.80;0.80;;;;;;;6.75;100.00;97548.94;4969707;28;20037;-70
2022/01/10 05:18:17;;;;;;;1.90;0.77;;;;;;;6.76;100.00;97545.19;4970762;28;20039;-68
2022/01/10 05:20:43;;;;;;;0.37;0.37;;;;;;;6.80;100.00;97548.88;4971228;28;20030;-75
2022/01/10 05:23:08;;;;;;;0.40;0.40;;;;;;;6.73;100.00;97538.56;4969515;28;20413;-71
2022/01/10 05:25:36;;;;;;;0.73;0.73;;;;;;;6.76;100.00;97547.06;4970208;28;20111;-72
2022/01/10 05:28:12;;;;;;;0.95;0.95;;;;;;;6.79;100.00;97557.91;4970095;28;20117;-71
2022/01/10 05:30:39;;;;;;;2.30;2.10;;;;;;;6.80;100.00;97570.13;4970951;28;20107;-73
2022/01/10 05:33:07;;;;;;;1.45;1.15;;;;;;;6.81;100.00;97574.34;4967944;28;20441;-70
2022/01/10 05:35:34;;;;;;;1.17;1.17;;;;;;;6.73;100.00;97561.72;4970687;28;20030;-70
2022/01/10 05:37:59;;;;;;;6.65;5.25;;;;;;;6.83;100.00;97584.69;4970419;28;20039;-70
2022/01/10 05:40:25;;;;;;;0.15;0.15;;;;;;;6.78;100.00;97592.75;4970140;28;20035;-70
2022/01/10 05:42:50;;;;;;;0.00;0.00;;;;;;;6.79;100.00;97587.13;4971037;28;20034;-71
2022/01/10 05:45:16;;;;;;;0.65;0.65;;;;;;;6.77;100.00;97580.53;4970661;28;20070;-70
2022/01/10 05:47:43;;;;;;;1.27;1.23;;;;;;;6.73;100.00;97575.00;4970649;28;20033;-70
2022/01/10 05:50:11;;;;;;;0.63;0.63;;;;;;;6.83;100.00;97592.66;4970773;28;20477;-70
2022/01/10 05:52:38;;;;;;;2.17;1.98;;;;;;;6.70;100.00;97576.38;4970714;28;20383;-70
2022/01/10 05:55:05;;;;;;;1.10;1.10;;;;;;;6.84;100.00;97599.56;4970374;28;20509;-70
2022/01/10 05:57:31;;;;;;;1.55;1.50;;;;;;;6.82;100.00;97585.75;4969384;28;20058;-70
2022/01/10 05:59:57;;;;;;;1.17;1.17;;;;;;;6.81;100.00;97595.63;4971088;28;20034;-70
2022/01/10 06:02:23;;;;;;;0.57;0.57;;;;;;;6.60;100.00;97573.06;4970854;28;20051;-70
2022/01/10 06:04:48;;;;;;;0.10;0.10;;;;;;;6.80;100.00;97602.00;4970499;28;20026;-71
2022/01/10 06:07:14;;;;;;;0.40;0.40;;;;;;;6.83;100.00;97612.03;4970529;28;20035;-71
2022/01/10 06:09:39;;;;;;;0.05;0.05;;;;;;;6.83;100.00;97608.59;4969436;28;20027;-71
2022/01/10 06:12:05;;;;;;;0.15;0.15;;;;;;;6.83;100.00;97609.38;4970159;28;20118;-71
2022/01/10 06:14:31;;;;;;;0.08;0.08;;;;;;;6.87;100.00;97612.25;4969856;28;20047;-71
2022/01/10 06:16:56;;;;;;;0.00;0.00;;;;;;;6.88;100.00;97605.88;4970098;28;20039;-70
2022/01/10 06:19:21;;;;;;;1.05;1.00;;;;;;;6.88;100.00;97616.50;4969689;28;20030;-70
2022/01/10 06:21:47;;;;;;;0.95;0.95;;;;;;;6.80;100.00;97606.50;4968646;28;20402;-70
2022/01/10 06:24:12;;;;;;;0.28;0.28;;;;;;;6.74;100.00;97597.84;4969650;28;20038;-70
2022/01/10 06:26:38;;;;;;;1.65;1.65;;;;;;;6.77;100.00;97593.81;4969747;28;20029;-70
2022/01/10 06:29:03;;;;;;;3.08;2.88;;;;;;;6.87;100.00;97621.03;4969271;28;20033;-71
2022/01/10 06:31:29;;;;;;;0.30;0.30;;;;;;;6.86;100.00;97621.31;4969828;28;20023;-71
2022/01/10 06:33:54;;;;;;;0.85;0.85;;;;;;;6.82;100.00;97612.34;4968472;28;20037;-71
2022/01/10 06:36:20;;;;;;;1.30;1.25;;;;;;;6.88;100.00;97613.84;4968139;28;20023;-71
2022/01/10 06:38:45;;;;;;;2.17;2.08;;;;;;;6.85;100.00;97620.53;4969656;28;20035;-71
2022/01/10 06:41:11;;;;;;;1.20;1.20;;;;;;;6.88;100.00;97621.81;4969047;28;20045;-70
2022/01/10 06:43:37;;;;;;;1.85;1.77;;;;;;;6.81;100.00;97606.25;4969296;28;20034;-70
2022/01/10 06:46:04;;;;;;;0.80;0.80;;;;;;;6.86;100.00;97616.81;4969356;28;20039;-72
2022/01/10 06:48:29;;;;;;;0.65;0.65;;;;;;;6.89;100.00;97621.53;4969530;28;20037;-70
2022/01/10 06:50:55;;;;;;;2.17;2.08;;;;;;;6.85;100.00;97617.88;4969458;28;20113;-71
2022/01/10 06:53:21;;;;;;;0.45;0.45;;;;;;;6.88;100.00;97612.00;4969349;28;20059;-71
2022/01/10 06:55:46;;;;;;;0.28;0.28;;;;;;;6.93;100.00;97632.38;4969420;28;20486;-71
2022/01/10 06:58:13;;;;;;;0.40;0.40;;;;;;;6.77;100.00;97602.56;4969310;28;20034;-70
2022/01/10 07:00:40;;;;;;;1.75;1.65;;;;;;;6.82;100.00;97610.50;4969508;28;20033;-70
2022/01/10 07:03:05;;;;;;;0.75;0.75;;;;;;;6.96;100.00;97631.03;4969619;28;20042;-70
2022/01/10 07:05:31;;;;;;;0.82;0.82;;;;;;;6.95;100.00;97635.53;4969682;28;20092;-70
2022/01/10 07:07:56;;;;;;;2.67;2.50;;;;;;;6.94;100.00;97635.84;4969924;28;20023;-71
2022/01/10 07:10:22;;;;;;;1.55;1.45;;;;;;;6.94;100.00;97633.19;4969615;28;20467;-71
2022/01/10 07:12:47;;;;;;;0.57;0.55;;;;;;;6.94;100.00;97643.81;4969809;28;20055;-71
2022/01/10 07:15:14;;;;;;;0.45;0.45;;;;;;;6.86;100.00;97635.41;4969293;28;20027;-71
2022/01/10 07:17:39;;;;;;;0.40;0.40;;;;;;;6.92;100.00;97640.66;4969763;28;20114;-71
2022/01/10 07:20:05;;;;;;;0.95;0.93;;;;;;;6.88;100.00;97637.75;4969286;28;20458;-71
2022/01/10 07:22:31;;;;;;;1.38;1.38;;;;;;;6.92;100.00;97644.09;4969221;28;20045;-71
2022/01/10 07:24:56;;;;;;;2.20;2.05;;;;;;;6.88;100.00;97645.75;4969111;28;20109;-71
2022/01/10 07:27:22;;;;;;;0.73;0.73;;;;;;;6.82;100.00;97637.06;4968060;28;20027;-71
2022/01/10 07:29:50;;;;;;;1.67;1.30;;;;;;;6.95;100.00;97656.81;4969583;28;20027;-71
2022/01/10 07:32:16;;;;;;;1.25;1.20;;;;;;;6.94;100.00;97657.88;4969119;28;20481;-71
2022/01/10 07:34:42;;;;;;;1.70;1.60;;;;;;;6.72;100.00;97624.66;4969525;28;20058;-71
2022/01/10 07:37:07;;;;;;;0.63;0.25;;;;;;;6.92;100.00;97657.41;4968045;28;20473;-71
2022/01/10 07:39:32;;;;;;;0.57;0.57;;;;;;;6.92;100.00;97662.72;4969589;28;20509;-71
2022/01/10 07:41:58;;;;;;;0.40;0.40;;;;;;;6.97;100.00;97673.28;4969176;28;20061;-71
2022/01/10 07:44:24;;;;;;;0.10;0.10;;;;;;;6.99;100.00;97667.66;4968850;28;20406;-71
2022/01/10 07:46:49;;;;;;;0.52;0.52;;;;;;;6.94;100.00;97665.84;4969354;28;20065;-71
2022/01/10 07:49:15;;;;;;;0.25;0.25;;;;;;;6.97;100.00;97669.81;4969090;28;20035;-70
2022/01/10 07:51:40;;;;;;;0.65;0.65;;;;;;;6.94;100.00;97665.06;4969635;28;20496;-70
2022/01/10 07:54:06;;;;;;;0.80;0.80;;;;;;;6.93;100.00;97664.28;4969005;28;20534;-70
2022/01/10 07:56:31;;;;;;;0.95;0.95;;;;;;;6.91;100.00;97657.66;4969464;28;20027;-70
2022/01/10 07:58:57;;;;;;;0.88;0.88;;;;;;;6.91;100.00;97661.13;4969120;28;20031;-70
2022/01/10 08:01:23;;;;;;;1.15;0.90;;;;;;;6.91;100.00;97647.03;4967395;28;20050;-70
2022/01/10 08:03:50;;;;;;;1.23;1.10;;;;;;;6.99;100.00;97665.00;4969902;28;20413;-71
2022/01/10 08:06:19;;;;;;;0.27;0.27;;;;;;;7.00;100.00;97669.25;4972604;28;20034;-71
2022/01/10 08:08:45;;;;;;;3.22;1.58;;;;;;;6.93;100.00;97653.63;4972480;28;20491;-71
2022/01/10 08:11:10;;;;;;;2.83;2.63;;;;;;;6.96;100.00;97655.75;4972284;28;20053;-71
2022/01/10 08:13:36;;;;;;;1.65;1.50;;;;;;;7.02;100.00;97673.19;4972400;28;20073;-71
2022/01/10 08:16:02;;;;;;;1.60;1.50;;;;;;;7.03;100.00;97680.09;4972479;28;20077;-71
2022/01/10 08:18:30;;;;;;;3.10;1.75;;;;;;;7.00;100.00;97675.34;4971915;28;20038;-70
2022/01/10 08:20:56;;;;;;;0.82;0.82;;;;;;;7.07;100.00;97679.50;4971076;28;20406;-70
2022/01/10 08:23:21;;;;;;;0.30;0.30;;;;;;;7.00;100.00;97672.69;4972324;28;20039;-70
2022/01/10 08:25:47;;;;;;;4.95;0.98;;;;;;;7.05;100.00;97677.97;4971968;28;20474;-70
2022/01/10 08:28:12;;;;;;;2.05;1.77;;;;;;;7.14;100.00;97679.94;4972144;28;20417;-70
2022/01/10 08:30:38;;;;;;;1.75;1.20;;;;;;;7.07;100.00;97668.88;4972406;28;20062;-72
2022/01/10 08:33:03;;;;;;;0.08;0.08;;;;;;;7.08;100.00;97662.50;4972240;28;20118;-70
2022/01/10 08:35:29;;;;;;;1.48;1.38;;;;;;;7.17;100.00;97682.06;4971934;28;20054;-70
2022/01/10 08:37:54;;;;;;;3.95;1.83;;;;;;;7.14;100.00;97683.41;4972062;28;20030;-70
2022/01/10 08:40:20;;;;;;;0.52;0.45;;;;;;;7.06;100.00;97665.44;4971878;28;20027;-71
2022/01/10 08:42:45;;;;;;;1.80;1.80;;;;;;;7.19;100.00;97693.97;4972263;28;20027;-70
2022/01/10 08:45:11;;;;;;;3.42;3.00;;;;;;;7.20;100.00;97689.44;4971752;28;20057;-72
2022/01/10 08:47:38;;;;;;;1.77;1.67;;;;;;;7.17;100.00;97682.81;4972107;28;20057;-71
2022/01/10 08:50:07;;;;;;;3.53;1.55;;;;;;;7.13;100.00;97673.06;4971968;28;20117;-71
2022/01/10 08:52:33;;;;;;;1.20;1.10;;;;;;;7.19;100.00;97685.22;4971825;28;20102;-70
2022/01/10 08:54:58;;;;;;;0.00;0.00;;;;;;;7.16;100.00;97675.94;4971826;28;20115;-70
2022/01/10 08:57:25;;;;;;;0.68;0.68;;;;;;;7.18;100.00;97667.69;4971505;28;20062;-72
2022/01/10 08:59:52;;;;;;;0.32;0.32;;;;;;;7.26;100.00;97682.19;4971771;28;20029;-70
2022/01/10 09:02:17;;;;;;;0.30;0.30;;;;;;;7.20;100.00;97666.31;4970081;28;20134;-71
2022/01/10 09:04:43;;;;;;;0.50;0.50;;;;;;;7.29;100.00;97673.66;4971706;28;20033;-71
2022/01/10 09:07:09;;;;;;;0.65;0.65;;;;;;;7.30;100.00;97680.53;4971491;28;20031;-70
2022/01/10 09:09:36;;;;;;;0.73;0.73;;;;;;;7.32;100.00;97673.88;4971665;28;20019;-70
2022/01/10 09:12:02;;;;;;;1.08;1.08;;;;;;;7.24;100.00;97657.75;4971610;28;20026;-70
2022/01/10 09:14:27;;;;;;;0.30;0.30;;;;;;;7.28;100.00;97661.44;4970858;28;20429;-72
2022/01/10 09:16:53;;;;;;;0.00;0.00;;;;;;;7.31;100.00;97671.47;4970072;28;20027;-71
2022/01/10 09:19:18;;;;;;;1.17;1.17;;;;;;;7.31;100.00;97666.16;4971309;28;20508;-70
2022/01/10 09:21:43;;;;;;;0.47;0.47;;;;;;;7.33;100.00;97656.03;4971224;28;20492;-70
2022/01/10 09:24:09;;;;;;;1.65;1.55;;;;;;;7.27;100.00;97642.00;4971140;28;20402;-70
2022/01/10 09:26:34;;;;;;;0.57;0.57;;;;;;;7.31;100.00;97658.19;4970189;28;20081;-70
2022/01/10 09:29:00;;;;;;;0.95;0.95;;;;;;;7.38;100.00;97653.28;4971681;28;20607;-72
2022/01/10 09:31:26;;;;;;;0.22;0.22;;;;;;;7.37;100.00;97651.69;4971148;28;20031;-72
2022/01/10 09:33:55;;;;;;;0.93;0.93;;;;;;;7.39;100.00;97648.78;4970066;28;20027;-71
2022/01/10 09:36:23;;;;;;;0.80;0.80;;;;;;;7.31;100.00;97640.38;4971086;28;20038;-71
2022/01/10 09:38:49;;;;;;;3.00;0.98;;;;;;;7.37;100.00;97654.38;4969875;28;20027;-70
2022/01/10 09:41:14;;;;;;;0.00;0.00;;;;;;;7.39;100.00;97643.47;4971004;28;20034;-70
2022/01/10 09:43:47;;;;;;;1.48;1.38;;;;;;;7.41;100.00;97655.38;4970840;28;20038;-72
2022/01/10 09:46:12;;;;;;;0.77;0.77;;;;;;;7.31;100.00;97629.72;4970890;28;20037;-70
2022/01/10 09:48:38;;;;;;;0.00;0.00;;;;;;;7.40;100.00;97643.16;4971113;28;20023;-71
2022/01/10 09:51:04;;;;;;;1.35;1.35;;;;;;;7.40;100.00;97648.47;4971323;28;20057;-71
2022/01/10 09:53:30;;;;;;;0.00;0.00;;;;;;;7.39;100.00;97635.47;4970798;28;20122;-70
2022/01/10 09:55:55;;;;;;;0.47;0.47;;;;;;;7.44;100.00;97651.34;4970886;28;20454;-70
2022/01/10 09:58:22;;;;;;;2.08;1.08;;;;;;;7.34;100.00;97639.00;4970672;28;20406;-70
2022/01/10 10:00:48;;;;;;;1.00;1.00;;;;;;;7.34;100.00;97629.13;4970702;28;20040;-71
2022/01/10 10:03:13;;;;;;;1.85;1.00;;;;;;;7.41;100.00;97644.75;4970548;28;20437;-71
2022/01/10 10:05:41;;;;;;;1.20;1.20;;;;;;;7.36;100.00;97628.84;4970763;28;20042;-71
2022/01/10 10:08:07;;;;;;;0.98;0.98;;;;;;;7.35;100.00;97625.41;4970555;28;20041;-71
2022/01/10 10:10:34;;;;;;;0.95;0.95;;;;;;;7.40;100.00;97637.03;4970531;28;20468;-71
2022/01/10 10:13:00;;;;;;;0.00;0.00;;;;;;;7.43;100.00;97641.78;4970441;28;20031;-71
2022/01/10 10:15:30;;;;;;;0.20;0.20;;;;;;;7.36;100.00;97637.63;4969213;28;20379;-70
2022/01/10 10:17:56;;;;;;;0.22;0.22;;;;;;;7.36;100.00;97634.16;4970422;28;20080;-71
2022/01/10 10:20:23;;;;;;;0.20;0.20;;;;;;;7.46;100.00;97635.91;4970161;28;20031;-71
2022/01/10 10:22:53;;;;;;;0.57;0.57;;;;;;;7.45;100.00;97637.75;4970707;28;20054;-71
2022/01/10 10:25:19;;;;;;;0.52;0.52;;;;;;;7.36;100.00;97634.16;4970201;28;20455;-71
2022/01/10 10:27:47;;;;;;;0.05;0.05;;;;;;;7.46;100.00;97638.56;4969965;28;20031;-71
2022/01/10 10:30:20;;;;;;;0.38;0.38;;;;;;;7.48;100.00;97645.16;4970539;28;20228;-71
2022/01/10 10:32:46;;;;;;;3.50;1.33;;;;;;;7.40;100.00;97637.84;4970429;28;20509;-71
2022/01/10 10:35:12;;;;;;;0.25;0.25;;;;;;;7.41;100.00;97633.28;4970317;28;20031;-71
2022/01/10 10:37:42;;;;;;;0.25;0.25;;;;;;;7.44;100.00;97646.03;4970344;28;20367;-71
2022/01/10 10:40:13;;;;;;;0.40;0.40;;;;;;;7.46;100.00;97651.88;4970293;28;20031;-71
2022/01/10 10:42:40;;;;;;;0.08;0.08;;;;;;;7.39;100.00;97630.16;4970276;28;20034;-71
2022/01/10 10:45:09;;;;;;;0.68;0.68;;;;;;;7.34;100.00;97631.03;4968857;28;20562;-71
2022/01/10 10:47:36;;;;;;;0.15;0.15;;;;;;;7.44;100.00;97640.72;4969741;28;20039;-71
2022/01/10 10:50:05;;;;;;;1.55;1.50;;;;;;;7.41;100.00;97641.28;4968881;28;20039;-71
2022/01/10 10:52:36;;;;;;;0.00;0.00;;;;;;;7.44;100.00;97640.72;4968746;28;20080;-71
2022/01/10 10:55:10;;;;;;;0.30;0.30;;;;;;;7.39;100.00;97636.25;4970344;28;20035;-71
2022/01/10 10:57:36;;;;;;;0.22;0.22;;;;;;;7.40;100.00;97645.00;4969768;28;20083;-71
2022/01/10 11:00:15;;;;;;;1.73;1.65;;;;;;;7.35;100.00;97644.03;4970026;28;20092;-71
2022/01/10 11:02:42;;;;;;;0.38;0.38;;;;;;;7.33;100.00;97638.19;4968678;28;20051;-71
2022/01/10 11:05:08;;;;;;;0.10;0.10;;;;;;;7.38;100.00;97642.66;4969887;28;20018;-71
2022/01/10 11:07:36;;;;;;;0.73;0.73;;;;;;;7.40;100.00;97650.34;4969361;28;20046;-71
2022/01/10 11:10:06;;;;;;;0.00;0.00;;;;;;;7.35;100.00;97643.25;4969956;28;20482;-71
2022/01/10 11:12:34;;;;;;;0.20;0.20;;;;;;;7.30;100.00;97638.78;4969692;28;20026;-71
2022/01/10 11:15:00;;;;;;;0.30;0.30;;;;;;;7.31;100.00;97631.59;4969868;28;20031;-71
2022/01/10 11:17:26;;;;;;;0.10;0.10;;;;;;;7.32;100.00;97643.81;4969595;28;20485;-71
2022/01/10 11:20:13;;;;;;;2.05;1.95;;;;;;;7.39;100.00;97654.09;4969824;28;20054;-71
2022/01/10 11:22:41;;;;;;;0.77;0.77;;;;;;;7.42;100.00;97664.94;4969330;28;20023;-71
2022/01/10 11:25:24;;;;;;;0.35;0.35;;;;;;;7.28;100.00;97640.16;4968297;28;20049;-71
2022/01/10 11:27:51;;;;;;;0.32;0.32;;;;;;;7.29;100.00;97642.53;4969160;28;20366;-71
2022/01/10 11:30:25;;;;;;;0.20;0.20;;;;;;;7.41;100.00;97650.06;4969252;28;20118;-71
2022/01/10 11:33:14;;;;;;;0.57;0.57;;;;;;;7.40;100.00;97661.78;4969525;28;20065;-71
2022/01/10 11:35:44;;;;;;;0.52;0.52;;;;;;;7.31;100.00;97644.88;4969548;28;20080;-71
2022/01/10 11:38:24;;;;;;;0.80;0.80;;;;;;;7.39;100.00;97673.50;4968717;28;20031;-70
2022/01/10 11:41:17;;;;;;;1.25;1.25;;;;;;;7.31;100.00;97643.03;4968155;28;20402;-70
2022/01/10 11:43:52;;;;;;;0.17;0.17;;;;;;;7.40;100.00;97659.13;4972850;28;20125;-71